sensor_id;sensor_type;location;lat;lon;timestamp;P1;durP1;ratioP1;P2;durP2;ratioP2
67841;SDS011;54642;59.126;37.876;2023-06-14T00:01:02;7.68;;;3.70;;
67841;SDS011;54642;59.126;37.876;2023-06-14T00:03:31;5.22;;;3.53;;
67841;SDS011;54642;59.126;37.876;2023-06-14T00:05:57;6.60;;;3.42;;
67841;SDS011;54642;59.126;37.876;2023-06-14T00:08:23;4.47;;;2.85;;
67841;SDS011;54642;59.126;37.876;2023-06-14T00:10:50;4.78;;;3.28;;
67841;SDS011;54642;59.126;37.876;2023-06-14T00:13:16;4.30;;;2.67;;
67841;SDS011;54642;59.126;37.876;2023-06-14T00:15:42;7.32;;;3.67;;
67841;SDS011;54642;59.126;37.876;2023-06-14T00:18:08;5.05;;;3.03;;
67841;SDS011;54642;59.126;37.876;2023-06-14T00:20:36;8.55;;;3.22;;
67841;SDS011;54642;59.126;37.876;2023-06-14T00:23:02;6.13;;;2.90;;
67841;SDS011;54642;59.126;37.876;2023-06-14T00:25:28;7.47;;;3.17;;
67841;SDS011;54642;59.126;37.876;2023-06-14T00:27:55;6.20;;;4.38;;
67841;SDS011;54642;59.126;37.876;2023-06-14T00:30:22;7.88;;;4.25;;
67841;SDS011;54642;59.126;37.876;2023-06-14T00:32:48;5.28;;;2.92;;
67841;SDS011;54642;59.126;37.876;2023-06-14T00:35:14;5.65;;;3.60;;
67841;SDS011;54642;59.126;37.876;2023-06-14T00:37:40;4.97;;;2.95;;
67841;SDS011;54642;59.126;37.876;2023-06-14T00:40:07;4.75;;;3.47;;
67841;SDS011;54642;59.126;37.876;2023-06-14T00:42:33;8.75;;;3.17;;
67841;SDS011;54642;59.126;37.876;2023-06-14T00:44:59;8.38;;;4.10;;
67841;SDS011;54642;59.126;37.876;2023-06-14T00:47:25;9.13;;;5.28;;
67841;SDS011;54642;59.126;37.876;2023-06-14T00:49:53;6.82;;;3.97;;
67841;SDS011;54642;59.126;37.876;2023-06-14T00:52:22;6.93;;;4.80;;
67841;SDS011;54642;59.126;37.876;2023-06-14T00:54:50;9.50;;;3.35;;
67841;SDS011;54642;59.126;37.876;2023-06-14T00:57:16;6.22;;;3.85;;
67841;SDS011;54642;59.126;37.876;2023-06-14T00:59:43;5.43;;;2.53;;
67841;SDS011;54642;59.126;37.876;2023-06-14T01:02:11;5.28;;;2.85;;
67841;SDS011;54642;59.126;37.876;2023-06-14T01:04:37;5.93;;;3.30;;
67841;SDS011;54642;59.126;37.876;2023-06-14T01:07:15;5.43;;;3.70;;
67841;SDS011;54642;59.126;37.876;2023-06-14T01:10:38;5.30;;;3.53;;
67841;SDS011;54642;59.126;37.876;2023-06-14T01:13:38;5.60;;;3.17;;
67841;SDS011;54642;59.126;37.876;2023-06-14T01:15:49;5.38;;;2.75;;
67841;SDS011;54642;59.126;37.876;2023-06-14T01:18:16;6.97;;;2.90;;
67841;SDS011;54642;59.126;37.876;2023-06-14T01:20:43;6.45;;;2.80;;
67841;SDS011;54642;59.126;37.876;2023-06-14T01:23:15;5.20;;;2.38;;
67841;SDS011;54642;59.126;37.876;2023-06-14T01:25:45;4.25;;;2.67;;
67841;SDS011;54642;59.126;37.876;2023-06-14T01:28:12;7.20;;;3.08;;
67841;SDS011;54642;59.126;37.876;2023-06-14T01:30:42;5.18;;;2.90;;
67841;SDS011;54642;59.126;37.876;2023-06-14T01:33:32;4.57;;;2.30;;
67841;SDS011;54642;59.126;37.876;2023-06-14T01:35:59;6.22;;;3.40;;
67841;SDS011;54642;59.126;37.876;2023-06-14T01:38:29;4.53;;;2.85;;
67841;SDS011;54642;59.126;37.876;2023-06-14T01:40:57;4.60;;;3.33;;
67841;SDS011;54642;59.126;37.876;2023-06-14T01:43:25;5.93;;;2.22;;
67841;SDS011;54642;59.126;37.876;2023-06-14T01:45:52;5.20;;;3.30;;
67841;SDS011;54642;59.126;37.876;2023-06-14T01:48:20;8.98;;;3.75;;
67841;SDS011;54642;59.126;37.876;2023-06-14T01:50:48;7.05;;;3.40;;
67841;SDS011;54642;59.126;37.876;2023-06-14T01:53:15;4.28;;;2.42;;
67841;SDS011;54642;59.126;37.876;2023-06-14T01:55:41;6.57;;;3.30;;
67841;SDS011;54642;59.126;37.876;2023-06-14T01:58:08;3.75;;;2.38;;
67841;SDS011;54642;59.126;37.876;2023-06-14T02:00:35;4.90;;;3.33;;
67841;SDS011;54642;59.126;37.876;2023-06-14T02:03:02;5.10;;;3.40;;
67841;SDS011;54642;59.126;37.876;2023-06-14T02:05:30;4.78;;;3.22;;
67841;SDS011;54642;59.126;37.876;2023-06-14T02:07:56;10.98;;;4.72;;
67841;SDS011;54642;59.126;37.876;2023-06-14T02:10:22;5.47;;;2.92;;
67841;SDS011;54642;59.126;37.876;2023-06-14T02:12:49;4.55;;;2.65;;
67841;SDS011;54642;59.126;37.876;2023-06-14T02:15:15;6.80;;;3.65;;
67841;SDS011;54642;59.126;37.876;2023-06-14T02:17:45;6.25;;;3.60;;
67841;SDS011;54642;59.126;37.876;2023-06-14T02:20:12;4.28;;;3.20;;
67841;SDS011;54642;59.126;37.876;2023-06-14T02:22:39;6.07;;;3.47;;
67841;SDS011;54642;59.126;37.876;2023-06-14T02:25:06;5.32;;;3.20;;
67841;SDS011;54642;59.126;37.876;2023-06-14T02:27:33;5.35;;;3.47;;
67841;SDS011;54642;59.126;37.876;2023-06-14T02:30:00;10.23;;;4.22;;
67841;SDS011;54642;59.126;37.876;2023-06-14T02:32:26;14.10;;;3.47;;
67841;SDS011;54642;59.126;37.876;2023-06-14T02:34:53;7.75;;;4.07;;
67841;SDS011;54642;59.126;37.876;2023-06-14T02:37:19;4.72;;;2.95;;
67841;SDS011;54642;59.126;37.876;2023-06-14T02:39:45;15.38;;;8.13;;
67841;SDS011;54642;59.126;37.876;2023-06-14T02:42:11;7.32;;;4.22;;
67841;SDS011;54642;59.126;37.876;2023-06-14T02:44:37;6.50;;;3.97;;
67841;SDS011;54642;59.126;37.876;2023-06-14T02:47:03;4.55;;;2.60;;
67841;SDS011;54642;59.126;37.876;2023-06-14T02:49:30;9.80;;;3.88;;
67841;SDS011;54642;59.126;37.876;2023-06-14T02:51:56;5.38;;;3.42;;
67841;SDS011;54642;59.126;37.876;2023-06-14T02:54:22;30.23;;;17.00;;
67841;SDS011;54642;59.126;37.876;2023-06-14T02:56:48;21.95;;;4.28;;
67841;SDS011;54642;59.126;37.876;2023-06-14T02:59:15;9.48;;;3.53;;
67841;SDS011;54642;59.126;37.876;2023-06-14T03:01:42;19.63;;;3.75;;
67841;SDS011;54642;59.126;37.876;2023-06-14T03:04:12;11.35;;;3.88;;
67841;SDS011;54642;59.126;37.876;2023-06-14T03:06:47;10.35;;;4.53;;
67841;SDS011;54642;59.126;37.876;2023-06-14T03:09:18;17.15;;;4.45;;
67841;SDS011;54642;59.126;37.876;2023-06-14T03:11:45;13.77;;;4.10;;
67841;SDS011;54642;59.126;37.876;2023-06-14T03:14:11;11.52;;;4.25;;
67841;SDS011;54642;59.126;37.876;2023-06-14T03:16:39;16.40;;;4.20;;
67841;SDS011;54642;59.126;37.876;2023-06-14T03:19:08;16.35;;;4.47;;
67841;SDS011;54642;59.126;37.876;2023-06-14T03:21:37;20.35;;;5.10;;
67841;SDS011;54642;59.126;37.876;2023-06-14T03:24:04;23.50;;;5.70;;
67841;SDS011;54642;59.126;37.876;2023-06-14T03:26:31;21.02;;;4.53;;
67841;SDS011;54642;59.126;37.876;2023-06-14T03:28:59;23.42;;;4.72;;
67841;SDS011;54642;59.126;37.876;2023-06-14T03:31:25;26.75;;;5.85;;
67841;SDS011;54642;59.126;37.876;2023-06-14T03:33:53;31.38;;;4.65;;
67841;SDS011;54642;59.126;37.876;2023-06-14T03:36:19;15.90;;;4.35;;
67841;SDS011;54642;59.126;37.876;2023-06-14T03:38:45;19.73;;;3.60;;
67841;SDS011;54642;59.126;37.876;2023-06-14T03:41:13;18.58;;;4.13;;
67841;SDS011;54642;59.126;37.876;2023-06-14T03:43:39;14.55;;;5.68;;
67841;SDS011;54642;59.126;37.876;2023-06-14T03:46:04;15.27;;;4.25;;
67841;SDS011;54642;59.126;37.876;2023-06-14T03:48:32;24.20;;;4.35;;
67841;SDS011;54642;59.126;37.876;2023-06-14T03:50:58;21.13;;;6.10;;
67841;SDS011;54642;59.126;37.876;2023-06-14T03:53:25;24.05;;;6.28;;
67841;SDS011;54642;59.126;37.876;2023-06-14T03:55:54;35.35;;;7.00;;
67841;SDS011;54642;59.126;37.876;2023-06-14T03:58:22;25.48;;;7.78;;
67841;SDS011;54642;59.126;37.876;2023-06-14T04:00:49;38.53;;;6.45;;
67841;SDS011;54642;59.126;37.876;2023-06-14T04:03:15;30.92;;;6.55;;
67841;SDS011;54642;59.126;37.876;2023-06-14T04:05:41;37.38;;;7.18;;
67841;SDS011;54642;59.126;37.876;2023-06-14T04:08:08;37.05;;;6.82;;
67841;SDS011;54642;59.126;37.876;2023-06-14T04:10:36;27.95;;;5.80;;
67841;SDS011;54642;59.126;37.876;2023-06-14T04:13:02;27.45;;;5.50;;
67841;SDS011;54642;59.126;37.876;2023-06-14T04:15:29;40.53;;;6.43;;
67841;SDS011;54642;59.126;37.876;2023-06-14T04:17:55;29.13;;;7.13;;
67841;SDS011;54642;59.126;37.876;2023-06-14T04:20:23;27.10;;;7.03;;
67841;SDS011;54642;59.126;37.876;2023-06-14T04:22:52;25.95;;;6.38;;
67841;SDS011;54642;59.126;37.876;2023-06-14T04:25:19;24.55;;;6.95;;
67841;SDS011;54642;59.126;37.876;2023-06-14T04:27:46;22.05;;;7.75;;
67841;SDS011;54642;59.126;37.876;2023-06-14T04:30:13;34.83;;;8.38;;
67841;SDS011;54642;59.126;37.876;2023-06-14T04:32:45;37.25;;;8.98;;
67841;SDS011;54642;59.126;37.876;2023-06-14T04:35:12;38.75;;;8.68;;
67841;SDS011;54642;59.126;37.876;2023-06-14T04:37:40;36.92;;;9.07;;
67841;SDS011;54642;59.126;37.876;2023-06-14T04:40:08;41.40;;;9.45;;
67841;SDS011;54642;59.126;37.876;2023-06-14T04:42:36;45.38;;;7.03;;
67841;SDS011;54642;59.126;37.876;2023-06-14T04:45:04;31.48;;;7.30;;
67841;SDS011;54642;59.126;37.876;2023-06-14T04:47:30;20.92;;;7.95;;
67841;SDS011;54642;59.126;37.876;2023-06-14T04:49:57;28.45;;;6.38;;
67841;SDS011;54642;59.126;37.876;2023-06-14T04:52:25;18.92;;;6.38;;
67841;SDS011;54642;59.126;37.876;2023-06-14T04:54:53;31.75;;;7.60;;
67841;SDS011;54642;59.126;37.876;2023-06-14T04:57:24;32.83;;;6.18;;
67841;SDS011;54642;59.126;37.876;2023-06-14T04:59:53;20.85;;;5.88;;
67841;SDS011;54642;59.126;37.876;2023-06-14T05:02:21;20.17;;;5.25;;
67841;SDS011;54642;59.126;37.876;2023-06-14T05:04:52;12.55;;;4.70;;
67841;SDS011;54642;59.126;37.876;2023-06-14T05:07:19;11.55;;;4.03;;
67841;SDS011;54642;59.126;37.876;2023-06-14T05:09:47;15.13;;;4.82;;
67841;SDS011;54642;59.126;37.876;2023-06-14T05:12:13;10.35;;;4.90;;
67841;SDS011;54642;59.126;37.876;2023-06-14T05:14:43;14.25;;;4.72;;
67841;SDS011;54642;59.126;37.876;2023-06-14T05:17:10;13.38;;;5.35;;
67841;SDS011;54642;59.126;37.876;2023-06-14T05:19:35;17.02;;;4.63;;
67841;SDS011;54642;59.126;37.876;2023-06-14T05:22:04;16.08;;;4.95;;
67841;SDS011;54642;59.126;37.876;2023-06-14T05:24:30;18.75;;;4.57;;
67841;SDS011;54642;59.126;37.876;2023-06-14T05:26:57;9.38;;;5.13;;
67841;SDS011;54642;59.126;37.876;2023-06-14T05:29:23;19.33;;;6.45;;
67841;SDS011;54642;59.126;37.876;2023-06-14T05:31:49;16.13;;;5.15;;
67841;SDS011;54642;59.126;37.876;2023-06-14T05:34:15;17.77;;;5.07;;
67841;SDS011;54642;59.126;37.876;2023-06-14T05:36:41;21.70;;;6.65;;
67841;SDS011;54642;59.126;37.876;2023-06-14T05:39:07;17.65;;;5.85;;
67841;SDS011;54642;59.126;37.876;2023-06-14T05:41:33;23.50;;;5.72;;
67841;SDS011;54642;59.126;37.876;2023-06-14T05:43:59;9.75;;;5.35;;
67841;SDS011;54642;59.126;37.876;2023-06-14T05:46:25;14.75;;;5.22;;
67841;SDS011;54642;59.126;37.876;2023-06-14T05:48:52;13.93;;;5.88;;
67841;SDS011;54642;59.126;37.876;2023-06-14T05:51:18;17.60;;;5.53;;
67841;SDS011;54642;59.126;37.876;2023-06-14T05:53:45;14.65;;;4.63;;
67841;SDS011;54642;59.126;37.876;2023-06-14T05:56:14;20.63;;;5.97;;
67841;SDS011;54642;59.126;37.876;2023-06-14T05:58:40;36.58;;;6.88;;
67841;SDS011;54642;59.126;37.876;2023-06-14T06:01:06;25.80;;;6.55;;
67841;SDS011;54642;59.126;37.876;2023-06-14T06:03:32;62.75;;;34.10;;
67841;SDS011;54642;59.126;37.876;2023-06-14T06:05:58;24.98;;;6.15;;
67841;SDS011;54642;59.126;37.876;2023-06-14T06:08:25;29.15;;;7.28;;
67841;SDS011;54642;59.126;37.876;2023-06-14T06:10:51;38.40;;;8.25;;
67841;SDS011;54642;59.126;37.876;2023-06-14T06:13:17;31.40;;;7.95;;
67841;SDS011;54642;59.126;37.876;2023-06-14T06:15:43;26.73;;;7.03;;
67841;SDS011;54642;59.126;37.876;2023-06-14T06:18:11;36.63;;;9.70;;
67841;SDS011;54642;59.126;37.876;2023-06-14T06:20:37;25.15;;;10.05;;
67841;SDS011;54642;59.126;37.876;2023-06-14T06:23:03;44.58;;;15.30;;
67841;SDS011;54642;59.126;37.876;2023-06-14T06:25:29;36.15;;;11.13;;
67841;SDS011;54642;59.126;37.876;2023-06-14T06:27:57;22.65;;;8.40;;
67841;SDS011;54642;59.126;37.876;2023-06-14T06:30:23;33.50;;;9.02;;
67841;SDS011;54642;59.126;37.876;2023-06-14T06:32:50;25.00;;;7.72;;
67841;SDS011;54642;59.126;37.876;2023-06-14T06:35:17;22.67;;;9.25;;
67841;SDS011;54642;59.126;37.876;2023-06-14T06:37:43;22.20;;;9.00;;
67841;SDS011;54642;59.126;37.876;2023-06-14T06:40:09;24.25;;;8.63;;
67841;SDS011;54642;59.126;37.876;2023-06-14T06:42:36;41.75;;;12.45;;
67841;SDS011;54642;59.126;37.876;2023-06-14T06:45:04;38.65;;;12.27;;
67841;SDS011;54642;59.126;37.876;2023-06-14T06:47:31;31.77;;;10.15;;
67841;SDS011;54642;59.126;37.876;2023-06-14T06:49:57;26.75;;;11.80;;
67841;SDS011;54642;59.126;37.876;2023-06-14T06:52:23;29.90;;;10.65;;
67841;SDS011;54642;59.126;37.876;2023-06-14T06:54:49;32.30;;;9.70;;
67841;SDS011;54642;59.126;37.876;2023-06-14T06:57:18;26.83;;;9.07;;
67841;SDS011;54642;59.126;37.876;2023-06-14T06:59:45;19.77;;;7.22;;
67841;SDS011;54642;59.126;37.876;2023-06-14T07:02:11;22.05;;;6.00;;
67841;SDS011;54642;59.126;37.876;2023-06-14T07:04:37;17.70;;;5.80;;
67841;SDS011;54642;59.126;37.876;2023-06-14T07:07:02;13.98;;;4.90;;
67841;SDS011;54642;59.126;37.876;2023-06-14T07:09:28;15.90;;;9.05;;
67841;SDS011;54642;59.126;37.876;2023-06-14T07:11:55;14.73;;;7.57;;
67841;SDS011;54642;59.126;37.876;2023-06-14T07:14:20;14.63;;;5.57;;
67841;SDS011;54642;59.126;37.876;2023-06-14T07:16:49;22.30;;;6.72;;
67841;SDS011;54642;59.126;37.876;2023-06-14T07:19:15;12.77;;;4.78;;
67841;SDS011;54642;59.126;37.876;2023-06-14T07:21:42;16.30;;;9.57;;
67841;SDS011;54642;59.126;37.876;2023-06-14T07:24:08;10.32;;;4.95;;
67841;SDS011;54642;59.126;37.876;2023-06-14T07:26:34;17.17;;;5.93;;
67841;SDS011;54642;59.126;37.876;2023-06-14T07:29:00;6.65;;;4.55;;
67841;SDS011;54642;59.126;37.876;2023-06-14T07:31:27;10.07;;;5.53;;
67841;SDS011;54642;59.126;37.876;2023-06-14T07:33:53;10.98;;;5.78;;
67841;SDS011;54642;59.126;37.876;2023-06-14T07:36:19;15.52;;;5.65;;
67841;SDS011;54642;59.126;37.876;2023-06-14T07:38:45;24.42;;;8.98;;
67841;SDS011;54642;59.126;37.876;2023-06-14T07:41:12;21.48;;;10.07;;
67841;SDS011;54642;59.126;37.876;2023-06-14T07:43:37;11.73;;;4.85;;
67841;SDS011;54642;59.126;37.876;2023-06-14T07:46:04;11.05;;;5.25;;
67841;SDS011;54642;59.126;37.876;2023-06-14T07:48:38;10.45;;;4.00;;
67841;SDS011;54642;59.126;37.876;2023-06-14T07:51:03;8.55;;;4.40;;
67841;SDS011;54642;59.126;37.876;2023-06-14T07:53:29;9.65;;;4.90;;
67841;SDS011;54642;59.126;37.876;2023-06-14T07:55:56;12.40;;;4.38;;
67841;SDS011;54642;59.126;37.876;2023-06-14T07:58:23;13.07;;;5.43;;
67841;SDS011;54642;59.126;37.876;2023-06-14T08:00:49;19.38;;;4.78;;
67841;SDS011;54642;59.126;37.876;2023-06-14T08:03:15;12.73;;;4.60;;
67841;SDS011;54642;59.126;37.876;2023-06-14T08:05:41;11.75;;;4.22;;
67841;SDS011;54642;59.126;37.876;2023-06-14T08:08:06;16.58;;;4.68;;
67841;SDS011;54642;59.126;37.876;2023-06-14T08:10:32;12.27;;;5.45;;
67841;SDS011;54642;59.126;37.876;2023-06-14T08:12:58;8.63;;;4.85;;
67841;SDS011;54642;59.126;37.876;2023-06-14T08:15:24;13.23;;;6.75;;
67841;SDS011;54642;59.126;37.876;2023-06-14T08:17:50;11.43;;;5.55;;
67841;SDS011;54642;59.126;37.876;2023-06-14T08:20:16;11.43;;;6.28;;
67841;SDS011;54642;59.126;37.876;2023-06-14T08:22:42;19.63;;;8.30;;
67841;SDS011;54642;59.126;37.876;2023-06-14T08:25:08;12.98;;;6.45;;
67841;SDS011;54642;59.126;37.876;2023-06-14T08:27:35;34.38;;;6.80;;
67841;SDS011;54642;59.126;37.876;2023-06-14T08:30:01;28.25;;;6.32;;
67841;SDS011;54642;59.126;37.876;2023-06-14T08:32:29;10.88;;;5.13;;
67841;SDS011;54642;59.126;37.876;2023-06-14T08:34:55;10.77;;;5.40;;
67841;SDS011;54642;59.126;37.876;2023-06-14T08:37:21;9.88;;;4.95;;
67841;SDS011;54642;59.126;37.876;2023-06-14T08:39:47;9.35;;;4.30;;
67841;SDS011;54642;59.126;37.876;2023-06-14T08:42:13;11.13;;;5.82;;
67841;SDS011;54642;59.126;37.876;2023-06-14T08:44:40;18.17;;;5.32;;
67841;SDS011;54642;59.126;37.876;2023-06-14T08:47:07;21.70;;;5.22;;
67841;SDS011;54642;59.126;37.876;2023-06-14T08:49:36;18.08;;;5.22;;
67841;SDS011;54642;59.126;37.876;2023-06-14T08:52:03;16.63;;;8.35;;
67841;SDS011;54642;59.126;37.876;2023-06-14T08:54:33;21.00;;;6.40;;
67841;SDS011;54642;59.126;37.876;2023-06-14T08:57:10;9.40;;;5.15;;
67841;SDS011;54642;59.126;37.876;2023-06-14T08:59:44;11.57;;;5.75;;
67841;SDS011;54642;59.126;37.876;2023-06-14T09:02:14;7.88;;;5.43;;
67841;SDS011;54642;59.126;37.876;2023-06-14T09:04:43;12.10;;;7.05;;
67841;SDS011;54642;59.126;37.876;2023-06-14T09:07:10;15.27;;;5.38;;
67841;SDS011;54642;59.126;37.876;2023-06-14T09:09:38;11.88;;;5.88;;
67841;SDS011;54642;59.126;37.876;2023-06-14T09:12:15;10.55;;;5.05;;
67841;SDS011;54642;59.126;37.876;2023-06-14T09:14:42;8.80;;;4.35;;
67841;SDS011;54642;59.126;37.876;2023-06-14T09:17:08;6.07;;;3.63;;
67841;SDS011;54642;59.126;37.876;2023-06-14T09:19:34;14.13;;;7.97;;
67841;SDS011;54642;59.126;37.876;2023-06-14T09:22:02;11.50;;;5.68;;
67841;SDS011;54642;59.126;37.876;2023-06-14T09:24:29;25.75;;;16.10;;
67841;SDS011;54642;59.126;37.876;2023-06-14T09:26:55;13.20;;;7.15;;
67841;SDS011;54642;59.126;37.876;2023-06-14T09:29:22;13.82;;;6.40;;
67841;SDS011;54642;59.126;37.876;2023-06-14T09:31:48;19.40;;;7.45;;
67841;SDS011;54642;59.126;37.876;2023-06-14T09:34:15;17.13;;;6.85;;
67841;SDS011;54642;59.126;37.876;2023-06-14T09:36:43;13.65;;;4.85;;
67841;SDS011;54642;59.126;37.876;2023-06-14T09:39:09;8.90;;;4.80;;
67841;SDS011;54642;59.126;37.876;2023-06-14T09:44:03;9.63;;;5.10;;
67841;SDS011;54642;59.126;37.876;2023-06-14T09:46:30;12.90;;;4.95;;
67841;SDS011;54642;59.126;37.876;2023-06-14T09:48:57;9.93;;;4.78;;
67841;SDS011;54642;59.126;37.876;2023-06-14T09:51:23;23.08;;;12.95;;
67841;SDS011;54642;59.126;37.876;2023-06-14T09:53:50;12.43;;;6.38;;
67841;SDS011;54642;59.126;37.876;2023-06-14T09:56:29;8.57;;;4.70;;
67841;SDS011;54642;59.126;37.876;2023-06-14T09:59:06;12.45;;;4.43;;
67841;SDS011;54642;59.126;37.876;2023-06-14T10:01:35;8.15;;;4.72;;
67841;SDS011;54642;59.126;37.876;2023-06-14T10:04:06;33.00;;;22.95;;
67841;SDS011;54642;59.126;37.876;2023-06-14T10:06:36;10.45;;;4.93;;
67841;SDS011;54642;59.126;37.876;2023-06-14T10:09:04;14.13;;;4.90;;
67841;SDS011;54642;59.126;37.876;2023-06-14T10:14:04;34.17;;;17.98;;
67841;SDS011;54642;59.126;37.876;2023-06-14T10:16:33;13.88;;;5.18;;
67841;SDS011;54642;59.126;37.876;2023-06-14T10:19:13;9.63;;;4.28;;
67841;SDS011;54642;59.126;37.876;2023-06-14T10:24:41;7.85;;;4.38;;
67841;SDS011;54642;59.126;37.876;2023-06-14T10:27:08;10.98;;;6.47;;
67841;SDS011;54642;59.126;37.876;2023-06-14T10:32:18;13.82;;;5.57;;
67841;SDS011;54642;59.126;37.876;2023-06-14T10:34:45;11.40;;;5.57;;
67841;SDS011;54642;59.126;37.876;2023-06-14T10:37:19;11.70;;;4.97;;
67841;SDS011;54642;59.126;37.876;2023-06-14T10:39:46;15.70;;;6.22;;
67841;SDS011;54642;59.126;37.876;2023-06-14T10:42:12;7.70;;;3.92;;
67841;SDS011;54642;59.126;37.876;2023-06-14T10:44:40;7.43;;;4.75;;
67841;SDS011;54642;59.126;37.876;2023-06-14T10:52:26;23.48;;;5.55;;
67841;SDS011;54642;59.126;37.876;2023-06-14T10:57:50;9.95;;;4.32;;
67841;SDS011;54642;59.126;37.876;2023-06-14T11:00:29;10.98;;;5.07;;
67841;SDS011;54642;59.126;37.876;2023-06-14T11:05:41;9.88;;;4.88;;
67841;SDS011;54642;59.126;37.876;2023-06-14T11:11:07;8.20;;;4.65;;
67841;SDS011;54642;59.126;37.876;2023-06-14T11:13:36;12.52;;;5.05;;
67841;SDS011;54642;59.126;37.876;2023-06-14T11:16:09;7.70;;;4.85;;
67841;SDS011;54642;59.126;37.876;2023-06-14T11:18:40;8.38;;;4.13;;
67841;SDS011;54642;59.126;37.876;2023-06-14T11:21:07;12.65;;;5.38;;
67841;SDS011;54642;59.126;37.876;2023-06-14T11:23:34;8.55;;;4.90;;
67841;SDS011;54642;59.126;37.876;2023-06-14T11:26:00;8.68;;;4.85;;
67841;SDS011;54642;59.126;37.876;2023-06-14T11:28:37;7.88;;;5.20;;
67841;SDS011;54642;59.126;37.876;2023-06-14T11:31:04;15.85;;;5.35;;
67841;SDS011;54642;59.126;37.876;2023-06-14T11:33:30;11.80;;;4.80;;
67841;SDS011;54642;59.126;37.876;2023-06-14T11:35:56;12.32;;;4.85;;
67841;SDS011;54642;59.126;37.876;2023-06-14T11:38:22;10.25;;;4.28;;
67841;SDS011;54642;59.126;37.876;2023-06-14T11:40:48;12.88;;;5.20;;
67841;SDS011;54642;59.126;37.876;2023-06-14T11:43:14;7.63;;;4.53;;
67841;SDS011;54642;59.126;37.876;2023-06-14T11:45:40;8.07;;;3.92;;
67841;SDS011;54642;59.126;37.876;2023-06-14T11:48:06;9.38;;;4.55;;
67841;SDS011;54642;59.126;37.876;2023-06-14T11:50:32;11.38;;;4.85;;
67841;SDS011;54642;59.126;37.876;2023-06-14T11:52:59;21.83;;;11.57;;
67841;SDS011;54642;59.126;37.876;2023-06-14T11:55:32;11.98;;;5.15;;
67841;SDS011;54642;59.126;37.876;2023-06-14T11:58:10;13.25;;;5.32;;
67841;SDS011;54642;59.126;37.876;2023-06-14T12:00:39;11.25;;;5.43;;
67841;SDS011;54642;59.126;37.876;2023-06-14T12:03:06;9.18;;;5.13;;
67841;SDS011;54642;59.126;37.876;2023-06-14T12:05:32;10.65;;;4.97;;
67841;SDS011;54642;59.126;37.876;2023-06-14T12:07:59;10.80;;;3.92;;
67841;SDS011;54642;59.126;37.876;2023-06-14T12:10:28;15.32;;;9.32;;
67841;SDS011;54642;59.126;37.876;2023-06-14T12:12:58;16.73;;;11.43;;
67841;SDS011;54642;59.126;37.876;2023-06-14T12:15:32;9.10;;;4.65;;
67841;SDS011;54642;59.126;37.876;2023-06-14T12:17:58;12.55;;;5.72;;
67841;SDS011;54642;59.126;37.876;2023-06-14T12:20:28;10.35;;;5.00;;
67841;SDS011;54642;59.126;37.876;2023-06-14T12:22:56;8.35;;;4.43;;
67841;SDS011;54642;59.126;37.876;2023-06-14T12:25:27;9.35;;;4.25;;
67841;SDS011;54642;59.126;37.876;2023-06-14T12:27:56;13.43;;;6.50;;
67841;SDS011;54642;59.126;37.876;2023-06-14T12:30:25;9.15;;;6.55;;
67841;SDS011;54642;59.126;37.876;2023-06-14T12:32:52;10.68;;;4.95;;
67841;SDS011;54642;59.126;37.876;2023-06-14T12:35:18;13.68;;;4.50;;
67841;SDS011;54642;59.126;37.876;2023-06-14T12:37:44;10.35;;;5.10;;
67841;SDS011;54642;59.126;37.876;2023-06-14T12:40:11;7.38;;;4.68;;
67841;SDS011;54642;59.126;37.876;2023-06-14T12:42:37;8.85;;;4.57;;
67841;SDS011;54642;59.126;37.876;2023-06-14T12:45:03;13.38;;;5.43;;
67841;SDS011;54642;59.126;37.876;2023-06-14T12:47:30;9.48;;;4.55;;
67841;SDS011;54642;59.126;37.876;2023-06-14T12:49:56;9.95;;;5.10;;
67841;SDS011;54642;59.126;37.876;2023-06-14T12:52:21;13.43;;;8.25;;
67841;SDS011;54642;59.126;37.876;2023-06-14T12:54:47;10.10;;;4.25;;
67841;SDS011;54642;59.126;37.876;2023-06-14T12:57:13;6.55;;;4.30;;
67841;SDS011;54642;59.126;37.876;2023-06-14T12:59:39;8.07;;;5.10;;
67841;SDS011;54642;59.126;37.876;2023-06-14T13:04:44;9.50;;;4.53;;
67841;SDS011;54642;59.126;37.876;2023-06-14T13:07:10;8.35;;;5.32;;
67841;SDS011;54642;59.126;37.876;2023-06-14T13:09:36;9.45;;;4.35;;
67841;SDS011;54642;59.126;37.876;2023-06-14T13:12:02;13.65;;;5.75;;
67841;SDS011;54642;59.126;37.876;2023-06-14T13:14:29;13.60;;;6.93;;
67841;SDS011;54642;59.126;37.876;2023-06-14T13:16:55;11.95;;;5.25;;
67841;SDS011;54642;59.126;37.876;2023-06-14T13:19:21;10.68;;;5.10;;
67841;SDS011;54642;59.126;37.876;2023-06-14T13:21:47;13.15;;;4.70;;
67841;SDS011;54642;59.126;37.876;2023-06-14T13:24:13;16.70;;;6.63;;
67841;SDS011;54642;59.126;37.876;2023-06-14T13:26:39;16.38;;;5.60;;
67841;SDS011;54642;59.126;37.876;2023-06-14T13:29:17;7.95;;;4.93;;
67841;SDS011;54642;59.126;37.876;2023-06-14T13:31:43;26.58;;;10.63;;
67841;SDS011;54642;59.126;37.876;2023-06-14T13:34:09;10.73;;;5.47;;
67841;SDS011;54642;59.126;37.876;2023-06-14T13:36:35;18.80;;;8.80;;
67841;SDS011;54642;59.126;37.876;2023-06-14T13:39:01;34.83;;;12.95;;
67841;SDS011;54642;59.126;37.876;2023-06-14T13:41:28;12.57;;;6.35;;
67841;SDS011;54642;59.126;37.876;2023-06-14T13:43:59;12.23;;;6.47;;
67841;SDS011;54642;59.126;37.876;2023-06-14T13:46:29;7.70;;;5.50;;
67841;SDS011;54642;59.126;37.876;2023-06-14T13:48:56;15.52;;;6.10;;
67841;SDS011;54642;59.126;37.876;2023-06-14T13:51:23;21.33;;;5.80;;
67841;SDS011;54642;59.126;37.876;2023-06-14T13:53:49;27.27;;;11.52;;
67841;SDS011;54642;59.126;37.876;2023-06-14T13:56:16;21.70;;;8.50;;
67841;SDS011;54642;59.126;37.876;2023-06-14T13:58:42;16.27;;;5.63;;
67841;SDS011;54642;59.126;37.876;2023-06-14T14:01:08;11.02;;;5.93;;
67841;SDS011;54642;59.126;37.876;2023-06-14T14:03:35;19.40;;;7.05;;
67841;SDS011;54642;59.126;37.876;2023-06-14T14:06:01;11.40;;;6.13;;
67841;SDS011;54642;59.126;37.876;2023-06-14T14:08:28;10.65;;;4.63;;
67841;SDS011;54642;59.126;37.876;2023-06-14T14:10:54;11.02;;;4.63;;
67841;SDS011;54642;59.126;37.876;2023-06-14T14:13:21;19.35;;;5.25;;
67841;SDS011;54642;59.126;37.876;2023-06-14T14:15:47;11.48;;;4.97;;
67841;SDS011;54642;59.126;37.876;2023-06-14T14:18:14;14.55;;;7.00;;
67841;SDS011;54642;59.126;37.876;2023-06-14T14:20:40;19.65;;;6.97;;
67841;SDS011;54642;59.126;37.876;2023-06-14T14:23:06;10.52;;;5.90;;
67841;SDS011;54642;59.126;37.876;2023-06-14T14:25:32;13.55;;;4.70;;
67841;SDS011;54642;59.126;37.876;2023-06-14T14:27:58;11.68;;;5.07;;
67841;SDS011;54642;59.126;37.876;2023-06-14T14:30:24;13.48;;;8.90;;
67841;SDS011;54642;59.126;37.876;2023-06-14T14:32:50;15.35;;;7.65;;
67841;SDS011;54642;59.126;37.876;2023-06-14T14:35:17;9.77;;;5.70;;
67841;SDS011;54642;59.126;37.876;2023-06-14T14:37:43;11.85;;;6.75;;
67841;SDS011;54642;59.126;37.876;2023-06-14T14:40:10;9.27;;;5.20;;
67841;SDS011;54642;59.126;37.876;2023-06-14T14:42:36;13.88;;;6.07;;
67841;SDS011;54642;59.126;37.876;2023-06-14T14:45:02;15.18;;;10.73;;
67841;SDS011;54642;59.126;37.876;2023-06-14T14:47:30;7.05;;;4.28;;
67841;SDS011;54642;59.126;37.876;2023-06-14T14:49:55;10.75;;;5.65;;
67841;SDS011;54642;59.126;37.876;2023-06-14T14:52:21;12.40;;;6.60;;
67841;SDS011;54642;59.126;37.876;2023-06-14T14:54:47;9.15;;;5.63;;